Time;durP1;ratioP1;P1;durP2;ratioP2;P2;SDS_P1;SDS_P2;PMS_P1;PMS_P2;Temp;Humidity;BMP_temperature;BMP_pressure;BME280_temperature;BME280_humidity;BME280_pressure;Samples;Min_cycle;Max_cycle;Signal;HPM_P1;HPM_P2
2021/05/20 00:00:51;;;;;;;6.03;4.85;;;12.50;92.30;;;;;;5031141;28;20034;-53
2021/05/20 00:03:16;;;;;;;8.20;5.60;;;12.50;92.30;;;;;;5031697;28;20560;-52
2021/05/20 00:05:42;;;;;;;8.73;6.03;;;12.60;92.20;;;;;;5010951;28;20401;-48
2021/05/20 00:08:08;;;;;;;10.02;6.47;;;12.60;92.20;;;;;;5021855;28;20036;-53
2021/05/20 00:10:33;;;;;;;7.32;6.15;;;12.60;92.20;;;;;;5021520;28;20447;-51
2021/05/20 00:12:59;;;;;;;7.70;6.78;;;12.60;92.30;;;;;;5041080;28;20108;-52
2021/05/20 00:15:25;;;;;;;7.25;6.55;;;12.60;92.70;;;;;;5051772;28;20041;-55
2021/05/20 00:17:50;;;;;;;8.23;5.95;;;12.50;92.70;;;;;;5037935;28;20056;-54
2021/05/20 00:20:16;;;;;;;7.75;6.25;;;12.50;92.70;;;;;;5046711;28;20067;-52
2021/05/20 00:22:42;;;;;;;8.15;6.82;;;12.60;92.60;;;;;;5048817;28;20398;-52
2021/05/20 00:25:08;;;;;;;8.13;6.10;;;12.60;92.60;;;;;;5034564;28;20527;-49
2021/05/20 00:27:34;;;;;;;5.93;5.43;;;12.40;92.60;;;;;;5032303;28;20401;-55
2021/05/20 00:30:00;;;;;;;6.20;5.60;;;12.30;93.00;;;;;;5042566;28;20037;-55
2021/05/20 00:32:25;;;;;;;6.82;6.20;;;12.20;93.00;;;;;;5037542;28;20376;-58
2021/05/20 00:34:51;;;;;;;7.05;5.35;;;12.20;92.80;;;;;;5032014;28;20493;-51
2021/05/20 00:37:17;;;;;;;7.38;5.60;;;12.20;93.00;;;;;;5044365;28;20043;-53
2021/05/20 00:39:43;;;;;;;5.70;4.95;;;12.20;93.10;;;;;;5031124;28;20030;-49
2021/05/20 00:42:12;;;;;;;6.32;5.07;;;12.20;92.90;;;;;;5031428;28;20067;-51
2021/05/20 00:44:58;;;;;;;5.90;5.30;;;12.10;93.10;;;;;;5035796;28;20045;-52
2021/05/20 00:47:32;;;;;;;6.38;5.40;;;12.00;93.20;;;;;;5037026;28;20112;-51
2021/05/20 00:49:59;;;;;;;7.30;5.47;;;11.90;93.50;;;;;;5032565;28;20044;-54
2021/05/20 00:52:25;;;;;;;6.00;5.40;;;11.70;93.80;;;;;;5045100;28;20513;-55
2021/05/20 00:54:56;;;;;;;6.13;5.00;;;11.70;93.90;;;;;;5019176;28;20029;-50
2021/05/20 00:57:23;;;;;;;6.15;5.07;;;11.70;93.80;;;;;;5038414;28;20038;-51
2021/05/20 00:59:49;;;;;;;9.32;5.28;;;11.60;94.00;;;;;;5032504;28;20032;-51
2021/05/20 01:02:15;;;;;;;7.07;5.30;;;11.60;93.80;;;;;;5041510;28;20153;-57
2021/05/20 01:04:41;;;;;;;6.13;5.43;;;11.60;93.90;;;;;;5036773;28;20038;-50
2021/05/20 01:07:07;;;;;;;5.70;4.95;;;11.70;93.80;;;;;;5043020;28;20602;-53
2021/05/20 01:09:35;;;;;;;6.13;5.53;;;11.70;93.90;;;;;;5031967;28;20037;-50
2021/05/20 01:12:02;;;;;;;5.38;4.82;;;11.80;93.80;;;;;;5038398;28;20431;-53
2021/05/20 01:14:27;;;;;;;5.35;4.85;;;11.90;93.60;;;;;;5038206;28;20075;-53
2021/05/20 01:16:53;;;;;;;6.32;4.80;;;12.00;93.50;;;;;;5033183;28;20108;-57
2021/05/20 01:19:19;;;;;;;5.55;5.05;;;12.00;93.20;;;;;;5041133;28;20057;-53
2021/05/20 01:21:44;;;;;;;5.07;4.57;;;12.10;93.10;;;;;;5044008;28;20097;-55
2021/05/20 01:24:11;;;;;;;4.78;4.28;;;12.00;92.70;;;;;;5031325;28;20041;-50
2021/05/20 01:26:38;;;;;;;5.95;4.70;;;11.90;92.90;;;;;;5030644;28;20137;-52
2021/05/20 01:29:05;;;;;;;5.65;4.93;;;11.80;93.10;;;;;;5034008;28;20361;-53
2021/05/20 01:31:31;;;;;;;7.85;5.20;;;11.50;93.80;;;;;;5045214;28;20050;-51
2021/05/20 01:33:56;;;;;;;8.07;5.32;;;11.50;94.00;;;;;;5040214;28;20091;-51
2021/05/20 01:36:29;;;;;;;6.13;5.13;;;11.40;94.80;;;;;;5042098;28;20105;-55
2021/05/20 01:39:00;;;;;;;8.40;6.15;;;11.50;94.50;;;;;;5039563;28;20033;-57
2021/05/20 01:41:25;;;;;;;6.50;5.38;;;11.60;94.20;;;;;;5034703;28;20057;-54
2021/05/20 01:43:51;;;;;;;5.63;5.13;;;11.70;94.10;;;;;;5034838;28;20057;-53
2021/05/20 01:46:16;;;;;;;5.93;5.32;;;11.50;94.40;;;;;;5044774;28;20042;-56
2021/05/20 01:48:44;;;;;;;5.68;5.18;;;11.70;94.30;;;;;;5045687;28;20120;-53
2021/05/20 01:51:18;;;;;;;8.77;6.10;;;11.70;94.30;;;;;;5040350;28;20039;-53
2021/05/20 01:53:45;;;;;;;7.78;5.22;;;11.70;94.30;;;;;;5044022;28;20037;-56
2021/05/20 01:56:14;;;;;;;6.60;4.80;;;11.60;94.00;;;;;;5039127;28;20132;-49
2021/05/20 01:58:39;;;;;;;5.80;5.07;;;11.60;94.20;;;;;;5043578;28;20544;-56
2021/05/20 02:01:05;;;;;;;6.57;5.43;;;11.50;94.10;;;;;;5036129;28;20113;-54
2021/05/20 02:03:31;;;;;;;6.70;5.00;;;11.40;94.50;;;;;;5047518;28;20025;-48
2021/05/20 02:05:57;;;;;;;6.72;4.97;;;11.40;94.10;;;;;;5037523;28;20099;-55
2021/05/20 02:08:27;;;;;;;7.78;5.15;;;11.40;94.40;;;;;;5038884;28;20033;-50
2021/05/20 02:10:53;;;;;;;6.45;4.90;;;11.50;94.30;;;;;;5042350;28;20109;-51
2021/05/20 02:13:18;;;;;;;6.20;5.10;;;11.40;94.50;;;;;;5048230;28;20478;-54
2021/05/20 02:15:44;;;;;;;5.43;4.70;;;11.60;94.00;;;;;;5036898;28;20049;-54
2021/05/20 02:18:09;;;;;;;6.72;5.03;;;11.40;94.30;;;;;;5049324;28;20392;-54
2021/05/20 02:20:35;;;;;;;8.05;5.07;;;11.50;94.20;;;;;;5046261;28;20045;-51
2021/05/20 02:23:02;;;;;;;7.10;5.68;;;11.40;94.10;;;;;;5048039;28;20484;-52
2021/05/20 02:25:27;;;;;;;7.57;5.20;;;11.30;94.80;;;;;;5037264;28;20029;-52
2021/05/20 02:27:53;;;;;;;7.78;5.47;;;11.20;94.80;;;;;;5033888;28;20041;-52
2021/05/20 02:30:19;;;;;;;5.40;4.90;;;11.20;94.90;;;;;;5033519;28;20029;-54
2021/05/20 02:32:45;;;;;;;7.82;6.03;;;11.20;94.80;;;;;;5039353;28;20037;-52
2021/05/20 02:35:11;;;;;;;5.90;5.30;;;11.40;94.60;;;;;;5041951;28;20512;-53
2021/05/20 02:37:37;;;;;;;6.50;5.40;;;11.50;94.30;;;;;;5047528;28;20033;-57
2021/05/20 02:40:05;;;;;;;8.20;5.72;;;11.10;95.20;;;;;;5035802;28;20029;-55
2021/05/20 02:42:31;;;;;;;6.97;5.75;;;11.20;95.20;;;;;;5032110;28;20021;-56
2021/05/20 02:44:56;;;;;;;8.10;5.90;;;11.30;94.80;;;;;;5041350;28;20044;-59
2021/05/20 02:47:22;;;;;;;7.30;5.28;;;11.30;94.90;;;;;;5051730;28;20037;-54
2021/05/20 02:49:47;;;;;;;6.47;5.50;;;11.50;94.30;;;;;;5019226;28;20036;-57
2021/05/20 02:52:13;;;;;;;6.90;5.47;;;11.50;94.40;;;;;;5044036;28;20099;-57
2021/05/20 02:54:40;;;;;;;6.00;4.80;;;11.50;94.10;;;;;;5039141;28;20036;-57
2021/05/20 02:57:06;;;;;;;7.13;5.18;;;11.40;93.70;;;;;;5040771;28;20067;-57
2021/05/20 02:59:32;;;;;;;6.63;5.88;;;11.30;94.00;;;;;;5043014;28;20061;-57
2021/05/20 03:02:04;;;;;;;10.98;5.50;;;11.10;94.40;;;;;;5041476;28;20412;-56
2021/05/20 03:04:39;;;;;;;8.35;5.80;;;11.20;94.20;;;;;;5039426;28;20124;-56
2021/05/20 03:07:06;;;;;;;6.45;5.20;;;11.30;94.10;;;;;;5041921;28;20504;-58
2021/05/20 03:09:33;;;;;;;5.63;5.00;;;11.50;93.80;;;;;;5047030;28;20032;-55
2021/05/20 03:12:00;;;;;;;6.63;5.55;;;11.50;93.40;;;;;;5039843;28;20039;-54
2021/05/20 03:14:26;;;;;;;7.82;5.32;;;11.40;92.80;;;;;;5039844;28;20041;-55
2021/05/20 03:16:52;;;;;;;6.60;5.63;;;11.20;93.70;;;;;;5042864;28;20520;-58
2021/05/20 03:19:18;;;;;;;6.70;5.32;;;11.30;93.70;;;;;;5042617;28;20068;-55
2021/05/20 03:21:44;;;;;;;5.63;5.00;;;11.30;93.80;;;;;;5038759;28;20036;-50
2021/05/20 03:24:10;;;;;;;6.32;5.40;;;11.40;93.50;;;;;;5043941;28;20439;-50
2021/05/20 03:26:36;;;;;;;7.15;5.55;;;11.40;93.50;;;;;;5036742;28;20048;-56
2021/05/20 03:29:02;;;;;;;7.30;5.72;;;11.40;93.50;;;;;;5034159;28;20025;-55
2021/05/20 03:31:28;;;;;;;7.65;5.40;;;11.50;93.40;;;;;;5043334;28;20370;-58
2021/05/20 03:33:54;;;;;;;6.10;5.10;;;11.70;92.80;;;;;;5046933;28;20503;-55
2021/05/20 03:36:19;;;;;;;6.20;5.00;;;11.70;92.70;;;;;;5037743;28;20035;-55
2021/05/20 03:38:45;;;;;;;7.28;5.00;;;11.60;92.90;;;;;;5040559;28;20037;-53
2021/05/20 03:41:11;;;;;;;6.25;5.03;;;11.60;93.20;;;;;;5034880;28;20022;-55
2021/05/20 03:43:36;;;;;;;5.68;5.07;;;11.70;93.00;;;;;;5032365;28;20377;-53
2021/05/20 03:46:03;;;;;;;6.40;5.18;;;11.80;92.30;;;;;;5046121;28;20029;-54
2021/05/20 03:48:30;;;;;;;6.35;4.93;;;11.80;92.40;;;;;;5041360;28;20104;-56
2021/05/20 03:50:58;;;;;;;6.38;5.50;;;11.70;92.10;;;;;;5038706;28;20045;-51
2021/05/20 03:53:29;;;;;;;7.82;5.45;;;11.60;92.20;;;;;;5035310;28;20516;-55
2021/05/20 03:55:54;;;;;;;7.38;5.47;;;11.40;92.50;;;;;;5032140;28;20072;-53
2021/05/20 03:58:20;;;;;;;5.93;5.10;;;11.50;92.50;;;;;;5038690;28;20064;-56
2021/05/20 04:00:46;;;;;;;8.07;5.30;;;11.60;92.30;;;;;;5035775;28;20169;-55
2021/05/20 04:03:28;;;;;;;5.80;5.15;;;11.70;92.20;;;;;;5034769;28;20029;-53
2021/05/20 04:05:55;;;;;;;7.25;5.10;;;11.70;91.80;;;;;;5032229;28;20033;-52
2021/05/20 04:08:21;;;;;;;5.68;5.10;;;11.70;92.00;;;;;;5036942;28;20507;-55
2021/05/20 04:10:48;;;;;;;5.78;5.28;;;11.70;92.40;;;;;;5041397;28;20042;-55
2021/05/20 04:13:25;;;;;;;6.75;5.47;;;11.70;92.10;;;;;;5033961;28;20504;-57
2021/05/20 04:15:51;;;;;;;6.68;5.40;;;11.50;92.70;;;;;;5042763;28;20132;-58
2021/05/20 04:18:16;;;;;;;5.75;5.10;;;11.60;92.40;;;;;;5038750;28;20057;-55
2021/05/20 04:20:42;;;;;;;5.97;5.38;;;11.60;92.50;;;;;;5031943;28;20057;-52
2021/05/20 04:23:07;;;;;;;7.90;5.80;;;11.70;92.60;;;;;;5033766;28;20041;-53
2021/05/20 04:25:33;;;;;;;6.38;5.65;;;11.60;92.30;;;;;;5044625;28;20071;-58
2021/05/20 04:27:58;;;;;;;7.63;5.15;;;11.40;93.10;;;;;;5031409;28;20063;-58
2021/05/20 04:30:24;;;;;;;7.45;5.63;;;11.40;93.30;;;;;;5045626;28;20037;-51
2021/05/20 04:32:50;;;;;;;7.93;5.93;;;11.50;93.30;;;;;;5031973;28;20167;-53
2021/05/20 04:35:15;;;;;;;7.00;5.45;;;11.50;93.40;;;;;;5030304;28;20124;-56
2021/05/20 04:37:41;;;;;;;8.80;5.90;;;11.50;93.40;;;;;;5043093;28;20037;-54
2021/05/20 04:40:07;;;;;;;7.07;6.15;;;11.40;93.80;;;;;;5031725;28;20040;-54
2021/05/20 04:42:33;;;;;;;6.97;5.50;;;11.40;93.70;;;;;;5033718;28;20158;-53
2021/05/20 04:44:58;;;;;;;6.22;5.63;;;11.50;93.50;;;;;;5051243;28;20493;-57
2021/05/20 04:47:24;;;;;;;6.95;6.22;;;11.60;93.40;;;;;;5037051;28;20055;-56
2021/05/20 04:49:49;;;;;;;6.80;5.95;;;11.60;93.50;;;;;;5031159;28;20084;-53
2021/05/20 04:52:15;;;;;;;6.55;5.53;;;11.60;93.50;;;;;;5042670;28;20083;-54
2021/05/20 04:54:40;;;;;;;7.05;6.05;;;11.70;93.20;;;;;;5035457;28;20075;-53
2021/05/20 04:57:06;;;;;;;6.88;5.68;;;11.70;93.10;;;;;;5041399;28;20088;-51
2021/05/20 04:59:31;;;;;;;6.72;5.25;;;11.90;92.50;;;;;;5040844;28;20048;-54
2021/05/20 05:01:57;;;;;;;9.85;6.03;;;11.90;92.80;;;;;;5039347;28;20543;-54
2021/05/20 05:04:22;;;;;;;7.13;6.30;;;12.00;92.30;;;;;;5033608;28;20064;-53
2021/05/20 05:06:48;;;;;;;7.95;5.93;;;12.00;92.00;;;;;;5034813;28;20504;-53
2021/05/20 05:09:14;;;;;;;7.03;6.10;;;11.80;92.60;;;;;;5051255;28;20460;-56
2021/05/20 05:11:39;;;;;;;8.02;5.57;;;11.80;92.50;;;;;;5047879;28;20555;-51
2021/05/20 05:14:05;;;;;;;8.55;6.18;;;11.90;92.80;;;;;;5043691;28;20082;-56
2021/05/20 05:16:30;;;;;;;6.95;6.25;;;12.20;91.80;;;;;;5051782;28;20116;-54
2021/05/20 05:18:56;;;;;;;7.93;6.07;;;12.00;92.10;;;;;;5046570;28;20370;-52
2021/05/20 05:21:22;;;;;;;9.20;6.40;;;12.20;92.00;;;;;;5045884;28;20026;-51
2021/05/20 05:23:47;;;;;;;10.05;7.25;;;12.20;91.20;;;;;;5048859;28;20040;-54
2021/05/20 05:26:13;;;;;;;13.55;9.60;;;11.90;91.70;;;;;;5043808;28;20033;-56
2021/05/20 05:28:39;;;;;;;8.73;6.50;;;11.80;91.90;;;;;;5037002;28;20055;-55
2021/05/20 05:31:04;;;;;;;9.40;7.00;;;12.10;91.60;;;;;;5049213;28;20392;-51
2021/05/20 05:33:30;;;;;;;9.60;6.75;;;12.20;90.80;;;;;;5039748;28;20022;-53
2021/05/20 05:35:56;;;;;;;7.22;6.38;;;12.10;91.10;;;;;;5038359;28;20048;-51
2021/05/20 05:38:21;;;;;;;7.68;6.82;;;12.10;91.10;;;;;;5044373;28;20030;-54
2021/05/20 05:40:47;;;;;;;9.23;6.53;;;11.70;91.80;;;;;;5033287;28;20045;-54
2021/05/20 05:43:12;;;;;;;8.82;6.88;;;11.70;92.00;;;;;;5033587;28;20431;-53
2021/05/20 05:45:38;;;;;;;10.75;8.45;;;12.00;92.00;;;;;;5034660;28;20136;-56
2021/05/20 05:48:05;;;;;;;9.50;8.50;;;11.90;91.80;;;;;;5038036;28;20083;-51
2021/05/20 05:50:30;;;;;;;12.20;8.80;;;11.80;91.70;;;;;;5034715;28;20116;-53
2021/05/20 05:52:56;;;;;;;12.77;8.90;;;11.60;92.50;;;;;;5033686;28;20089;-54
2021/05/20 05:55:22;;;;;;;10.60;9.13;;;11.70;92.30;;;;;;5044254;28;20037;-55
2021/05/20 05:57:47;;;;;;;11.23;9.15;;;11.70;92.20;;;;;;5038797;28;20048;-54
2021/05/20 06:00:13;;;;;;;11.32;9.48;;;11.80;92.20;;;;;;5035062;28;20032;-53
2021/05/20 06:02:39;;;;;;;12.10;10.15;;;12.00;91.70;;;;;;5047282;28;20029;-53
2021/05/20 06:05:06;;;;;;;15.35;12.20;;;12.20;91.30;;;;;;5038751;28;20685;-51
2021/05/20 06:07:35;;;;;;;16.23;11.02;;;12.10;91.10;;;;;;5040903;28;20616;-52
2021/05/20 06:10:03;;;;;;;14.32;11.40;;;12.10;91.30;;;;;;5036492;28;20033;-52
2021/05/20 06:12:29;;;;;;;14.73;12.25;;;12.20;91.10;;;;;;5044611;28;20045;-53
2021/05/20 06:14:54;;;;;;;15.80;11.93;;;12.20;91.30;;;;;;5039883;28;20111;-54
2021/05/20 06:17:20;;;;;;;15.02;12.70;;;12.20;91.30;;;;;;5039148;28;20029;-56
2021/05/20 06:19:45;;;;;;;13.55;11.45;;;12.20;91.50;;;;;;5046141;28;20056;-55
2021/05/20 06:22:11;;;;;;;13.48;11.82;;;12.20;91.20;;;;;;5038325;28;20045;-54
2021/05/20 06:24:36;;;;;;;18.15;13.95;;;12.30;91.10;;;;;;5044384;28;20038;-55
2021/05/20 06:27:02;;;;;;;16.50;13.90;;;12.30;91.40;;;;;;5033735;28;20121;-54
2021/05/20 06:29:28;;;;;;;17.15;15.20;;;12.30;91.30;;;;;;5039172;28;20508;-57
2021/05/20 06:31:53;;;;;;;18.33;14.90;;;12.10;91.70;;;;;;5041562;28;20377;-56
2021/05/20 06:34:19;;;;;;;19.35;14.65;;;12.10;91.50;;;;;;5039854;28;20528;-53
2021/05/20 06:36:46;;;;;;;18.90;16.52;;;12.20;91.30;;;;;;5039670;28;20477;-57
2021/05/20 06:39:11;;;;;;;21.05;16.02;;;12.20;91.10;;;;;;5032433;28;20041;-54
2021/05/20 06:41:38;;;;;;;20.85;16.17;;;12.40;91.00;;;;;;5033188;28;20037;-53
2021/05/20 06:44:04;;;;;;;19.30;16.08;;;12.30;91.30;;;;;;5019443;28;20034;-53
2021/05/20 06:46:30;;;;;;;21.17;17.48;;;12.20;91.10;;;;;;5047686;28;20059;-53
2021/05/20 06:48:56;;;;;;;24.88;19.63;;;12.10;91.50;;;;;;5051963;28;20137;-49
2021/05/20 06:51:21;;;;;;;24.35;20.27;;;12.10;91.30;;;;;;5048352;28;20121;-59
2021/05/20 06:53:48;;;;;;;21.50;19.27;;;12.00;91.40;;;;;;5052091;28;20079;-51
2021/05/20 06:56:21;;;;;;;22.13;19.27;;;12.30;91.20;;;;;;5050185;28;20405;-56
2021/05/20 07:01:31;;;;;;;30.17;22.13;;;12.30;91.10;;;;;;5041074;28;20030;-58
2021/05/20 07:03:56;;;;;;;26.58;20.67;;;12.00;91.80;;;;;;5044960;28;20288;-53
2021/05/20 07:06:22;;;;;;;25.85;21.92;;;12.20;91.50;;;;;;5038678;28;20542;-55
2021/05/20 07:08:47;;;;;;;23.48;20.70;;;12.40;91.00;;;;;;5034226;28;20057;-55
2021/05/20 07:11:13;;;;;;;23.40;20.80;;;12.30;91.00;;;;;;5045334;28;20044;-55
2021/05/20 07:13:40;;;;;;;24.23;20.63;;;12.30;91.00;;;;;;5048433;28;20026;-59
2021/05/20 07:16:06;;;;;;;24.30;21.10;;;12.50;90.90;;;;;;5049692;28;20052;-52
2021/05/20 07:18:31;;;;;;;24.75;21.90;;;12.60;90.60;;;;;;5039984;28;20056;-55
2021/05/20 07:20:58;;;;;;;24.52;21.88;;;12.70;90.40;;;;;;5041884;28;20465;-55
2021/05/20 07:23:24;;;;;;;25.25;21.73;;;12.50;90.50;;;;;;5046682;28;20075;-55
2021/05/20 07:25:49;;;;;;;25.55;22.75;;;12.80;90.20;;;;;;5035042;28;20073;-57
2021/05/20 07:28:15;;;;;;;26.15;23.10;;;13.00;89.90;;;;;;5043143;28;20137;-56
2021/05/20 07:30:41;;;;;;;22.35;19.95;;;12.90;90.00;;;;;;5044887;28;20587;-56
2021/05/20 07:33:07;;;;;;;24.23;21.73;;;12.80;88.90;;;;;;5049032;28;20511;-54
2021/05/20 07:35:33;;;;;;;23.80;21.25;;;12.60;90.00;;;;;;5050030;28;20107;-55
2021/05/20 07:37:58;;;;;;;24.63;21.38;;;12.40;90.50;;;;;;5048803;28;20061;-55
2021/05/20 07:40:24;;;;;;;22.77;20.45;;;12.50;90.00;;;;;;5042175;28;20025;-57
2021/05/20 07:42:50;;;;;;;22.00;19.77;;;12.80;89.20;;;;;;5046713;28;20790;-57
2021/05/20 07:45:16;;;;;;;22.52;20.23;;;13.00;88.20;;;;;;5051594;28;20036;-56
2021/05/20 07:47:44;;;;;;;21.30;19.15;;;13.30;87.80;;;;;;5038473;28;20117;-54
2021/05/20 07:50:11;;;;;;;22.63;20.20;;;13.30;87.60;;;;;;5049138;28;20608;-55
2021/05/20 07:52:37;;;;;;;22.75;20.48;;;13.10;87.50;;;;;;5052703;28;20381;-55
2021/05/20 07:55:04;;;;;;;19.92;17.83;;;13.30;87.70;;;;;;5046561;28;20033;-54
2021/05/20 07:57:30;;;;;;;21.65;17.98;;;13.50;85.60;;;;;;5054390;28;20017;-57
2021/05/20 07:59:55;;;;;;;21.00;18.83;;;13.50;84.50;;;;;;5045097;28;20117;-57
2021/05/20 08:04:59;;;;;;;20.70;18.65;;;13.50;86.00;;;;;;5051764;28;20158;-56
2021/05/20 08:10:28;;;;;;;40.65;30.85;;;13.80;84.00;;;;;;5050689;28;20041;-56
2021/05/20 08:12:54;;;;;;;18.65;16.58;;;14.00;83.60;;;;;;5044331;28;20469;-58
2021/05/20 08:15:20;;;;;;;16.90;15.25;;;13.90;82.80;;;;;;5036621;28;20109;-57
2021/05/20 08:17:45;;;;;;;17.38;15.63;;;13.90;83.00;;;;;;5040234;28;20029;-57
2021/05/20 08:20:12;;;;;;;16.40;14.70;;;14.10;82.00;;;;;;5037602;28;20063;-53
2021/05/20 08:22:38;;;;;;;18.77;16.88;;;14.00;82.70;;;;;;5039065;28;20405;-56
2021/05/20 08:25:05;;;;;;;20.52;18.42;;;14.00;82.90;;;;;;5045470;28;20038;-57
2021/05/20 08:27:33;;;;;;;21.60;19.10;;;13.70;83.70;;;;;;5035922;28;20044;-58
2021/05/20 08:29:59;;;;;;;19.65;17.60;;;13.70;84.30;;;;;;5041004;28;20029;-58
2021/05/20 08:32:24;;;;;;;18.90;16.85;;;14.00;83.70;;;;;;5048017;28;20498;-57
2021/05/20 08:34:50;;;;;;;15.98;14.32;;;14.20;82.20;;;;;;5032276;28;20112;-54
2021/05/20 08:37:15;;;;;;;13.70;12.27;;;14.50;78.40;;;;;;5036698;28;20148;-56
2021/05/20 08:39:41;;;;;;;16.50;14.90;;;14.10;78.30;;;;;;5047995;28;20370;-59
2021/05/20 08:42:07;;;;;;;15.30;13.05;;;13.90;79.80;;;;;;5042762;28;20087;-52
2021/05/20 08:44:32;;;;;;;14.63;13.10;;;14.10;78.70;;;;;;5038853;28;20029;-57
2021/05/20 08:46:59;;;;;;;14.63;13.13;;;14.10;79.40;;;;;;5051573;28;20063;-57
2021/05/20 08:49:25;;;;;;;14.02;12.63;;;14.40;78.60;;;;;;5045432;28;20025;-58
2021/05/20 08:51:53;;;;;;;13.98;12.30;;;14.70;78.00;;;;;;5040340;28;20484;-57
2021/05/20 08:54:21;;;;;;;13.00;11.60;;;14.40;77.00;;;;;;5033064;28;20033;-56
2021/05/20 08:56:54;;;;;;;15.13;12.02;;;14.00;78.90;;;;;;5051817;28;20021;-54
2021/05/20 08:59:21;;;;;;;13.02;11.70;;;13.70;79.30;;;;;;5045037;28;20081;-56
2021/05/20 09:01:48;;;;;;;12.00;10.73;;;13.90;77.10;;;;;;5027371;28;20022;-57
2021/05/20 09:04:14;;;;;;;13.07;11.68;;;14.00;77.70;;;;;;5037301;28;20104;-57
2021/05/20 09:06:52;;;;;;;12.15;10.85;;;13.90;77.60;;;;;;5051731;28;20425;-56
2021/05/20 09:09:21;;;;;;;11.43;10.30;;;14.00;77.90;;;;;;5034169;28;20061;-55
2021/05/20 09:11:49;;;;;;;13.65;12.25;;;13.70;78.80;;;;;;5046392;28;20033;-53
2021/05/20 09:14:36;;;;;;;13.57;12.18;;;13.80;78.60;;;;;;5051674;28;20392;-57
2021/05/20 09:17:19;;;;;;;14.65;11.90;;;13.60;79.00;;;;;;5030923;28;20059;-59
2021/05/20 09:19:57;;;;;;;14.88;11.63;;;13.60;79.40;;;;;;5031903;28;20034;-54
2021/05/20 09:22:23;;;;;;;14.20;12.40;;;14.10;79.30;;;;;;5027344;28;20518;-55
2021/05/20 09:24:51;;;;;;;12.77;11.45;;;14.90;77.00;;;;;;5046160;28;20037;-52
2021/05/20 09:27:36;;;;;;;14.95;12.38;;;15.10;76.40;;;;;;5040197;28;20037;-54
2021/05/20 09:30:16;;;;;;;14.80;12.00;;;15.20;76.00;;;;;;5046693;28;20033;-54
2021/05/20 09:32:46;;;;;;;14.30;11.10;;;15.30;75.30;;;;;;5040282;28;20078;-57
2021/05/20 09:35:12;;;;;;;12.07;9.63;;;15.30;73.90;;;;;;5043419;28;20091;-54
2021/05/20 09:37:54;;;;;;;10.45;8.32;;;15.10;73.10;;;;;;5050410;28;20029;-53
2021/05/20 09:40:22;;;;;;;12.18;10.05;;;15.10;72.00;;;;;;5031687;28;20040;-55
2021/05/20 09:42:48;;;;;;;10.80;9.68;;;14.90;72.20;;;;;;5035528;28;20041;-56
2021/05/20 09:45:18;;;;;;;11.55;9.20;;;14.60;73.20;;;;;;5044388;28;20484;-55
2021/05/20 09:47:44;;;;;;;11.68;9.95;;;14.70;74.30;;;;;;5035402;28;20060;-57
2021/05/20 09:50:12;;;;;;;11.60;10.27;;;15.00;74.00;;;;;;5038311;28;20513;-55
2021/05/20 09:52:38;;;;;;;11.60;9.50;;;15.10;73.80;;;;;;5051182;28;20052;-58
2021/05/20 09:55:25;;;;;;;9.95;8.57;;;15.20;73.70;;;;;;5047564;28;20469;-52
2021/05/20 09:57:52;;;;;;;12.15;9.90;;;15.50;73.40;;;;;;5035342;28;20029;-57
2021/05/20 10:00:22;;;;;;;10.60;9.10;;;15.20;74.40;;;;;;5048790;28;20104;-54
2021/05/20 10:02:58;;;;;;;9.38;7.60;;;15.00;75.40;;;;;;5044852;28;20417;-52
2021/05/20 10:05:32;;;;;;;9.40;8.40;;;15.30;73.20;;;;;;5048508;28;20402;-54
2021/05/20 10:08:00;;;;;;;10.40;9.30;;;15.10;72.80;;;;;;5046393;28;20104;-56
2021/05/20 10:10:26;;;;;;;10.68;9.57;;;15.10;74.50;;;;;;5047284;28;20116;-58
2021/05/20 10:12:52;;;;;;;10.73;9.63;;;14.80;76.90;;;;;;5034632;28;20124;-57
2021/05/20 10:15:21;;;;;;;10.48;9.32;;;14.70;77.10;;;;;;5038126;28;20033;-58
2021/05/20 10:17:47;;;;;;;11.10;9.00;;;14.50;77.40;;;;;;5030339;28;20060;-57
2021/05/20 10:20:19;;;;;;;13.40;10.90;;;14.60;77.30;;;;;;5030765;28;20029;-57
2021/05/20 10:22:45;;;;;;;12.90;10.57;;;14.40;78.00;;;;;;5039776;28;20553;-58
2021/05/20 10:25:13;;;;;;;12.80;10.00;;;14.30;78.70;;;;;;5042218;28;20034;-61
2021/05/20 10:27:40;;;;;;;11.30;9.45;;;14.50;77.70;;;;;;5031188;28;20045;-57
2021/05/20 10:30:09;;;;;;;11.25;9.35;;;14.70;77.00;;;;;;5034856;28;20059;-58
2021/05/20 10:32:35;;;;;;;11.02;9.52;;;15.00;77.20;;;;;;5035141;28;20053;-56
2021/05/20 10:35:09;;;;;;;12.30;9.00;;;15.00;75.80;;;;;;5039596;28;20176;-59
2021/05/20 10:37:42;;;;;;;9.53;8.63;;;15.30;74.70;;;;;;5042615;28;20376;-62
2021/05/20 10:40:12;;;;;;;10.18;8.57;;;15.60;75.20;;;;;;5039799;28;20112;-58
2021/05/20 10:42:42;;;;;;;11.90;8.43;;;15.70;74.40;;;;;;5034307;28;20042;-58
2021/05/20 10:45:18;;;;;;;8.63;7.25;;;15.80;71.90;;;;;;5044056;28;20033;-57
2021/05/20 10:48:08;;;;;;;8.90;6.78;;;15.40;71.20;;;;;;5063494;28;20128;-58
2021/05/20 10:50:52;;;;;;;7.75;6.63;;;15.40;70.80;;;;;;5028479;28;20502;-58
2021/05/20 10:53:39;;;;;;;7.00;6.15;;;15.50;72.20;;;;;;5024725;28;20036;-56
2021/05/20 10:56:05;;;;;;;9.98;6.95;;;15.80;71.60;;;;;;5050864;28;20045;-57
2021/05/20 10:58:36;;;;;;;9.02;6.13;;;15.80;69.50;;;;;;5038773;28;20067;-54
2021/05/20 11:01:05;;;;;;;7.22;6.20;;;15.70;69.60;;;;;;5031771;28;20034;-57
2021/05/20 11:04:02;;;;;;;6.90;5.97;;;15.70;69.40;;;;;;5031671;28;20060;-58
2021/05/20 11:06:46;;;;;;;7.60;5.60;;;15.60;71.00;;;;;;5046743;28;20031;-55
2021/05/20 11:09:15;;;;;;;11.27;5.68;;;15.30;72.50;;;;;;5032902;28;20031;-53
2021/05/20 11:11:41;;;;;;;8.07;5.70;;;15.50;72.20;;;;;;5042882;28;20030;-57
2021/05/20 11:14:12;;;;;;;6.82;5.07;;;15.50;70.70;;;;;;5034607;28;20388;-58
2021/05/20 11:16:40;;;;;;;8.30;5.57;;;15.60;70.70;;;;;;5052101;28;20033;-54
2021/05/20 11:19:28;;;;;;;5.65;5.13;;;16.10;69.20;;;;;;5043482;28;20037;-55
2021/05/20 11:22:03;;;;;;;10.35;5.47;;;16.30;69.50;;;;;;5021855;28;20029;-55
2021/05/20 11:24:30;;;;;;;5.28;4.72;;;16.60;68.10;;;;;;5042288;28;20814;-54
2021/05/20 11:27:24;;;;;;;5.60;5.10;;;16.80;67.50;;;;;;5032061;28;20045;-58
2021/05/20 11:29:50;;;;;;;5.60;5.10;;;16.90;66.60;;;;;;5043447;28;20083;-55
2021/05/20 11:32:30;;;;;;;6.75;5.25;;;16.70;68.40;;;;;;5041352;28;20037;-54
2021/05/20 11:35:21;;;;;;;8.45;5.28;;;16.60;68.10;;;;;;5036929;28;20112;-56
2021/05/20 11:37:47;;;;;;;6.00;4.60;;;16.50;68.60;;;;;;5033952;28;20022;-57
2021/05/20 11:40:31;;;;;;;7.32;5.10;;;16.50;68.20;;;;;;5035131;28;20053;-56
2021/05/20 11:42:57;;;;;;;6.68;4.60;;;16.50;68.40;;;;;;5033151;28;20044;-57
2021/05/20 11:45:28;;;;;;;4.60;3.90;;;16.50;67.20;;;;;;5011609;28;20038;-57
2021/05/20 11:47:58;;;;;;;4.95;3.72;;;16.80;66.00;;;;;;5057107;28;20071;-56
2021/05/20 11:50:25;;;;;;;4.55;3.65;;;16.70;65.80;;;;;;5036633;28;20071;-55
2021/05/20 11:52:52;;;;;;;3.55;3.20;;;16.70;65.50;;;;;;5050645;28;20032;-57
2021/05/20 11:55:22;;;;;;;7.00;3.45;;;16.20;66.40;;;;;;5045086;28;20034;-57
2021/05/20 11:57:47;;;;;;;3.85;3.45;;;16.00;68.40;;;;;;5044564;28;20084;-57
2021/05/20 12:00:14;;;;;;;6.50;3.40;;;15.90;69.20;;;;;;5040394;28;20033;-56
2021/05/20 12:02:41;;;;;;;4.88;2.80;;;15.30;70.30;;;;;;5051126;28;20025;-58
2021/05/20 12:05:12;;;;;;;3.92;2.50;;;15.10;70.60;;;;;;5046807;28;20074;-53
2021/05/20 12:07:40;;;;;;;4.80;3.15;;;14.80;70.90;;;;;;5046211;28;20075;-57
2021/05/20 12:10:22;;;;;;;2.90;2.60;;;14.30;74.50;;;;;;5047420;28;20033;-59
2021/05/20 12:12:57;;;;;;;3.67;2.50;;;13.90;76.30;;;;;;5046611;28;20030;-57
2021/05/20 12:15:27;;;;;;;4.05;2.70;;;13.60;78.00;;;;;;5034510;28;20056;-56
2021/05/20 12:17:56;;;;;;;2.33;2.13;;;13.70;79.30;;;;;;5034983;28;20029;-59
2021/05/20 12:20:24;;;;;;;2.92;2.50;;;13.70;76.20;;;;;;5023888;28;20077;-58
2021/05/20 12:22:50;;;;;;;2.92;2.10;;;14.00;74.50;;;;;;5038304;28;20398;-57
2021/05/20 12:25:18;;;;;;;3.63;2.50;;;14.40;73.60;;;;;;5042916;28;20033;-60
2021/05/20 12:27:44;;;;;;;6.30;2.75;;;14.80;72.50;;;;;;5029959;28;20056;-58
2021/05/20 12:30:37;;;;;;;3.20;2.72;;;15.10;70.80;;;;;;5039607;28;20030;-58
2021/05/20 12:33:03;;;;;;;3.00;2.60;;;15.60;70.00;;;;;;5032895;28;20029;-55
2021/05/20 12:35:31;;;;;;;3.78;2.70;;;16.30;70.30;;;;;;5047719;28;20037;-60
2021/05/20 12:38:09;;;;;;;3.38;2.50;;;16.70;70.60;;;;;;5047767;28;20021;-55
2021/05/20 12:40:43;;;;;;;3.17;2.72;;;17.10;69.40;;;;;;5032871;28;20108;-58
2021/05/20 12:43:17;;;;;;;4.78;2.80;;;16.70;68.40;;;;;;5035215;28;20028;-58
2021/05/20 12:45:55;;;;;;;3.60;2.83;;;16.80;67.10;;;;;;5046526;28;20056;-58
2021/05/20 12:48:21;;;;;;;3.33;2.95;;;16.70;68.40;;;;;;5017964;28;20113;-57
2021/05/20 12:50:47;;;;;;;4.35;2.95;;;16.50;67.20;;;;;;5038399;28;20052;-59
2021/05/20 12:53:16;;;;;;;3.40;3.10;;;16.60;67.30;;;;;;5047254;28;20440;-55